createdAt,value
2019-01-30T00:01:28.758Z,28.37
2019-01-30T00:03:57.089Z,30.97
2019-01-30T00:06:25.214Z,30.83
2019-01-30T00:08:53.274Z,29.03
2019-01-30T00:11:21.278Z,29.33
2019-01-30T00:13:49.237Z,30.20
2019-01-30T00:16:17.272Z,30.40
2019-01-30T00:18:47.921Z,31.37
2019-01-30T00:21:16.515Z,30.17
2019-01-30T00:23:44.916Z,29.10
2019-01-30T00:26:13.135Z,33.40
2019-01-30T00:28:40.829Z,30.37
2019-01-30T00:31:08.699Z,29.67
2019-01-30T00:33:36.859Z,30.07
2019-01-30T00:36:04.960Z,29.10
2019-01-30T00:38:33.350Z,29.37
2019-01-30T00:41:01.508Z,29.00
2019-01-30T00:43:29.615Z,29.23
2019-01-30T00:45:57.606Z,28.53
2019-01-30T00:48:25.723Z,29.27
2019-01-30T00:50:54.817Z,28.40
2019-01-30T00:53:22.916Z,28.27
2019-01-30T00:55:51.024Z,28.63
2019-01-30T00:58:19.115Z,28.20
2019-01-30T01:00:47.133Z,27.20
2019-01-30T01:03:15.352Z,26.90
2019-01-30T01:05:43.354Z,27.97
2019-01-30T01:08:12.532Z,28.03
2019-01-30T01:10:40.519Z,28.17
2019-01-30T01:13:08.539Z,26.73
2019-01-30T01:15:36.670Z,26.70
2019-01-30T01:18:04.928Z,26.80
2019-01-30T01:20:32.981Z,27.90
2019-01-30T01:23:01.181Z,26.90
2019-01-30T01:25:29.268Z,27.60
2019-01-30T01:27:57.305Z,26.90
2019-01-30T01:30:26.030Z,26.33
2019-01-30T01:32:54.053Z,25.47
2019-01-30T01:35:22.232Z,25.77
2019-01-30T01:37:50.203Z,27.33
2019-01-30T01:40:18.197Z,26.87
2019-01-30T01:42:46.222Z,25.10
2019-01-30T01:45:15.752Z,24.77
2019-01-30T01:47:43.958Z,27.17
2019-01-30T01:50:14.102Z,28.67
2019-01-30T01:52:42.083Z,27.43
2019-01-30T01:55:10.245Z,26.63
2019-01-30T01:57:38.388Z,27.20
2019-01-30T02:00:10.864Z,26.00
2019-01-30T02:02:38.834Z,27.93
2019-01-30T02:05:08.968Z,27.53
2019-01-30T02:07:37.050Z,28.13
2019-01-30T02:10:05.935Z,25.87
2019-01-30T02:12:33.965Z,27.10
2019-01-30T02:15:02.173Z,26.03
2019-01-30T02:17:30.312Z,28.20
2019-01-30T02:19:58.120Z,26.83
2019-01-30T02:22:26.169Z,25.50
2019-01-30T02:24:54.086Z,25.40
2019-01-30T02:27:21.937Z,27.07
2019-01-30T02:29:49.876Z,25.37
2019-01-30T02:32:18.042Z,27.33
2019-01-30T02:34:46.119Z,26.90
2019-01-30T02:37:14.542Z,28.40
2019-01-30T02:39:42.622Z,28.97
2019-01-30T02:42:10.930Z,28.50
2019-01-30T02:44:38.675Z,26.97
2019-01-30T02:47:06.770Z,28.27
2019-01-30T02:49:34.686Z,28.10
2019-01-30T02:52:04.279Z,28.27
2019-01-30T02:54:32.169Z,29.03
2019-01-30T02:57:00.107Z,28.80
2019-01-30T02:59:28.016Z,28.57
2019-01-30T03:02:14.377Z,29.77
2019-01-30T03:04:42.379Z,27.70
2019-01-30T03:07:10.159Z,29.80
2019-01-30T03:09:38.236Z,29.47
2019-01-30T03:12:06.258Z,28.93
2019-01-30T03:14:34.209Z,29.87
2019-01-30T03:17:02.227Z,30.73
2019-01-30T03:19:30.147Z,30.17
2019-01-30T03:21:58.338Z,29.80
2019-01-30T03:24:27.385Z,29.63
2019-01-30T03:26:55.454Z,30.63
2019-01-30T03:29:23.364Z,29.93
2019-01-30T03:31:51.464Z,31.20
2019-01-30T03:34:21.172Z,32.33
2019-01-30T03:36:49.185Z,33.73
2019-01-30T03:39:17.255Z,32.50
2019-01-30T03:41:45.294Z,33.17
2019-01-30T03:44:13.487Z,32.03
2019-01-30T03:46:41.691Z,31.80
2019-01-30T03:49:09.652Z,32.77
2019-01-30T03:51:37.817Z,33.83
2019-01-30T03:54:06.665Z,35.13
2019-01-30T03:56:34.816Z,33.43
2019-01-30T03:59:04.322Z,34.43
2019-01-30T04:01:32.470Z,34.80
2019-01-30T04:04:00.742Z,36.27
2019-01-30T04:06:29.041Z,33.13
2019-01-30T04:08:57.413Z,35.37
2019-01-30T04:11:25.291Z,34.43
2019-01-30T04:13:53.291Z,34.43
2019-01-30T04:16:21.420Z,34.67
2019-01-30T04:18:49.470Z,35.00
2019-01-30T04:21:17.374Z,33.30
2019-01-30T04:23:45.298Z,35.40
2019-01-30T04:26:13.299Z,33.87
2019-01-30T04:28:41.341Z,35.67
2019-01-30T04:31:09.374Z,35.70
2019-01-30T04:33:37.495Z,35.53
2019-01-30T04:36:05.534Z,34.60
2019-01-30T04:38:33.618Z,34.47
2019-01-30T04:41:01.448Z,32.97
2019-01-30T04:43:29.364Z,33.83
2019-01-30T04:45:57.442Z,33.47
2019-01-30T04:48:25.573Z,35.07
2019-01-30T04:50:53.614Z,35.93
2019-01-30T04:53:21.529Z,34.87
2019-01-30T04:55:49.454Z,33.20
2019-01-30T04:58:19.162Z,35.63
2019-01-30T05:00:46.934Z,34.13
2019-01-30T05:03:15.479Z,32.70
2019-01-30T05:05:43.246Z,31.43
2019-01-30T05:08:11.098Z,31.60
2019-01-30T05:10:38.900Z,30.33
2019-01-30T05:13:06.986Z,30.83
2019-01-30T05:15:35.053Z,32.10
2019-01-30T05:18:03.162Z,31.50
2019-01-30T05:20:33.030Z,29.20
2019-01-30T05:23:01.139Z,28.30
2019-01-30T05:25:29.237Z,26.87
2019-01-30T05:27:59.097Z,28.97
2019-01-30T05:30:28.887Z,28.43
2019-01-30T05:32:57.058Z,28.73
2019-01-30T05:35:25.046Z,29.07
2019-01-30T05:37:53.132Z,29.20
2019-01-30T05:40:21.325Z,28.43
2019-01-30T05:42:49.373Z,29.60
2019-01-30T05:45:17.679Z,28.97
2019-01-30T05:47:46.809Z,30.07
2019-01-30T05:50:15.108Z,29.57
2019-01-30T05:52:43.033Z,29.17
2019-01-30T05:55:11.495Z,30.70
2019-01-30T05:57:39.550Z,31.17
2019-01-30T06:00:24.455Z,30.70
2019-01-30T06:02:52.576Z,28.53
2019-01-30T06:05:20.882Z,27.93
2019-01-30T06:07:48.996Z,30.67
2019-01-30T06:10:16.964Z,28.37
2019-01-30T06:12:44.813Z,28.83
2019-01-30T06:15:13.296Z,28.63
2019-01-30T06:17:41.493Z,29.67
2019-01-30T06:20:13.051Z,30.77
2019-01-30T06:22:41.095Z,28.57
2019-01-30T06:25:09.339Z,28.23
2019-01-30T06:27:37.441Z,25.20
2019-01-30T06:30:06.734Z,28.03
2019-01-30T06:32:34.693Z,25.13
2019-01-30T06:35:02.601Z,24.63
2019-01-30T06:37:30.720Z,23.57
2019-01-30T06:39:58.699Z,24.50
2019-01-30T06:42:26.563Z,24.20
2019-01-30T06:44:54.523Z,24.20
2019-01-30T06:47:22.422Z,23.97
2019-01-30T06:49:50.599Z,23.23
2019-01-30T06:52:18.822Z,23.13
2019-01-30T06:54:46.996Z,24.20
2019-01-30T06:57:14.978Z,24.70
2019-01-30T06:59:42.976Z,22.90
2019-01-30T07:02:10.972Z,24.90
2019-01-30T07:04:39.174Z,22.20
2019-01-30T07:07:07.421Z,23.23
2019-01-30T07:09:35.665Z,22.33
2019-01-30T07:12:04.003Z,23.43
2019-01-30T07:14:31.834Z,23.47
2019-01-30T07:16:59.960Z,23.70
2019-01-30T07:19:28.096Z,23.43
2019-01-30T07:21:55.971Z,22.57
2019-01-30T07:24:23.935Z,23.30
2019-01-30T07:26:52.057Z,22.50
2019-01-30T07:29:20.076Z,22.00
2019-01-30T07:31:48.070Z,23.10
2019-01-30T07:34:15.968Z,23.90
2019-01-30T07:36:43.965Z,24.60
2019-01-30T07:39:11.962Z,24.50
2019-01-30T07:41:39.844Z,23.80
2019-01-30T07:44:07.696Z,24.87
2019-01-30T07:46:35.864Z,24.10
2019-01-30T07:49:03.852Z,24.23
2019-01-30T07:51:31.931Z,24.97
2019-01-30T07:53:59.985Z,24.73
2019-01-30T07:56:29.001Z,24.03
2019-01-30T07:58:57.258Z,22.07
2019-01-30T08:01:25.221Z,22.50
2019-01-30T08:03:53.725Z,21.30
2019-01-30T08:06:22.064Z,21.87
2019-01-30T08:08:50.182Z,20.37
2019-01-30T08:11:18.387Z,21.07
2019-01-30T08:13:46.264Z,21.73
2019-01-30T08:16:14.070Z,22.03
2019-01-30T08:18:41.929Z,21.40
2019-01-30T08:21:09.843Z,21.27
2019-01-30T08:23:37.998Z,21.40
2019-01-30T08:26:06.200Z,20.37
2019-01-30T08:28:34.492Z,21.17
2019-01-30T08:31:03.087Z,21.50
2019-01-30T08:33:31.037Z,21.67
2019-01-30T08:35:59.155Z,23.93
2019-01-30T08:38:27.148Z,22.60
2019-01-30T08:40:55.154Z,22.37
2019-01-30T08:43:23.179Z,24.40
2019-01-30T08:45:51.256Z,23.70
2019-01-30T08:48:19.426Z,25.70
2019-01-30T08:50:47.471Z,25.93
2019-01-30T08:53:15.341Z,23.97
2019-01-30T08:55:43.354Z,24.80
2019-01-30T08:58:11.428Z,24.30
2019-01-30T09:00:39.284Z,25.40
2019-01-30T09:03:14.594Z,24.47
2019-01-30T09:05:37.296Z,24.30
2019-01-30T09:08:05.427Z,22.00
2019-01-30T09:10:33.522Z,24.23
2019-01-30T09:13:01.579Z,24.23
2019-01-30T09:15:29.609Z,27.10
2019-01-30T09:17:57.672Z,25.87
2019-01-30T09:20:25.874Z,26.60
2019-01-30T09:22:53.938Z,25.60
2019-01-30T09:25:23.711Z,27.33
2019-01-30T09:27:51.759Z,26.17
2019-01-30T09:30:40.749Z,26.53
2019-01-30T09:33:09.686Z,25.73
2019-01-30T09:35:37.597Z,25.00
2019-01-30T09:38:05.436Z,25.77
2019-01-30T09:40:33.399Z,24.80
2019-01-30T09:43:01.449Z,24.67
2019-01-30T09:45:29.569Z,25.07
2019-01-30T09:47:57.788Z,25.70
2019-01-30T09:50:26.026Z,26.17
2019-01-30T09:52:54.355Z,24.87
2019-01-30T09:55:22.942Z,26.30
2019-01-30T09:57:52.777Z,25.13
2019-01-30T10:00:24.374Z,25.67
2019-01-30T10:02:52.467Z,23.30
2019-01-30T10:05:20.494Z,23.47
2019-01-30T10:07:48.599Z,24.80
2019-01-30T10:10:19.340Z,24.80
2019-01-30T10:12:47.556Z,25.10
2019-01-30T10:15:17.538Z,24.80
2019-01-30T10:17:45.328Z,23.97
2019-01-30T10:20:16.117Z,22.47
2019-01-30T10:22:44.333Z,23.27
2019-01-30T10:25:12.603Z,22.17
2019-01-30T10:27:40.576Z,21.63
2019-01-30T10:30:11.208Z,21.27
2019-01-30T10:32:39.176Z,22.00
2019-01-30T10:35:07.097Z,20.50
2019-01-30T10:37:35.021Z,21.57
2019-01-30T10:40:03.509Z,21.87
2019-01-30T10:42:31.582Z,23.97
2019-01-30T10:44:59.843Z,21.47
2019-01-30T10:47:27.969Z,23.13
2019-01-30T10:49:55.978Z,22.57
2019-01-30T10:52:24.102Z,23.00
2019-01-30T10:54:53.605Z,22.20
2019-01-30T10:57:21.896Z,22.87
2019-01-30T10:59:50.144Z,21.37
2019-01-30T11:02:21.425Z,20.70
2019-01-30T11:04:49.486Z,21.13
2019-01-30T11:07:17.457Z,22.57
2019-01-30T11:09:45.410Z,21.17
2019-01-30T11:12:13.407Z,22.10
2019-01-30T11:14:41.218Z,21.93
2019-01-30T11:17:09.248Z,21.00
2019-01-30T11:19:37.152Z,20.83
2019-01-30T11:22:05.588Z,20.30
2019-01-30T11:24:33.588Z,21.47
2019-01-30T11:27:01.765Z,20.73
2019-01-30T11:29:29.922Z,21.20
2019-01-30T11:31:57.988Z,21.23
2019-01-30T11:34:25.848Z,19.53
2019-01-30T11:36:53.756Z,19.53
2019-01-30T11:39:21.792Z,20.20
2019-01-30T11:41:49.955Z,20.10
2019-01-30T11:44:18.044Z,19.73
2019-01-30T11:46:45.999Z,18.77
2019-01-30T11:49:14.253Z,19.23
2019-01-30T11:51:42.157Z,14.63
2019-01-30T11:54:10.341Z,17.53
2019-01-30T11:56:39.349Z,15.97
2019-01-30T11:59:07.297Z,18.37
2019-01-30T12:01:35.570Z,19.23
2019-01-30T12:04:04.075Z,19.00
2019-01-30T12:06:32.096Z,18.90
2019-01-30T12:09:00.198Z,20.37
2019-01-30T12:11:29.099Z,20.50
2019-01-30T12:13:57.090Z,19.77
2019-01-30T12:16:25.065Z,20.47
2019-01-30T12:18:53.127Z,20.63
2019-01-30T12:21:21.040Z,21.27
2019-01-30T12:23:48.989Z,20.57
2019-01-30T12:26:16.959Z,21.40
2019-01-30T12:28:45.307Z,21.30
2019-01-30T12:31:13.244Z,20.60
2019-01-30T12:33:41.284Z,21.53
2019-01-30T12:36:09.349Z,22.30
2019-01-30T12:38:38.257Z,22.87
2019-01-30T12:41:06.197Z,22.47
2019-01-30T12:43:34.126Z,21.73
2019-01-30T12:46:02.042Z,22.90
2019-01-30T12:48:30.069Z,22.93
2019-01-30T12:50:58.148Z,23.07
2019-01-30T12:53:25.967Z,24.07
2019-01-30T12:55:54.171Z,22.67
2019-01-30T12:58:22.356Z,23.37
2019-01-30T13:00:50.635Z,24.03
2019-01-30T13:03:18.727Z,25.43
2019-01-30T13:05:46.745Z,24.07
2019-01-30T13:08:14.702Z,25.43
2019-01-30T13:10:42.694Z,25.70
2019-01-30T13:13:10.891Z,25.90
2019-01-30T13:15:40.474Z,23.00
2019-01-30T13:18:18.046Z,22.97
2019-01-30T13:20:38.751Z,21.30
2019-01-30T13:23:06.764Z,20.83
2019-01-30T13:25:35.760Z,22.57
2019-01-30T13:28:05.228Z,20.70
2019-01-30T13:30:37.728Z,19.70
2019-01-30T13:33:07.142Z,21.13
2019-01-30T13:35:35.130Z,21.70
2019-01-30T13:38:03.358Z,20.07
2019-01-30T13:40:33.683Z,19.27
2019-01-30T13:43:01.939Z,20.07
2019-01-30T13:45:30.569Z,19.63
2019-01-30T13:47:58.586Z,20.67
2019-01-30T13:50:27.879Z,19.47
2019-01-30T13:52:55.884Z,20.13
2019-01-30T13:55:23.790Z,19.67
2019-01-30T13:57:51.854Z,20.67
2019-01-30T14:00:25.110Z,19.50
2019-01-30T14:02:53.205Z,19.47
2019-01-30T14:05:21.628Z,15.03
2019-01-30T14:07:50.065Z,15.07
2019-01-30T14:10:18.221Z,14.60
2019-01-30T14:12:46.147Z,14.03
2019-01-30T14:15:15.705Z,14.10
2019-01-30T14:17:43.717Z,13.93
2019-01-30T14:20:12.296Z,14.70
2019-01-30T14:22:40.387Z,13.80
2019-01-30T14:25:09.189Z,14.80
2019-01-30T14:27:37.023Z,13.90
2019-01-30T14:30:08.689Z,13.70
2019-01-30T14:32:36.677Z,12.37
2019-01-30T14:35:10.773Z,13.20
2019-01-30T14:37:35.358Z,12.30
2019-01-30T14:40:04.586Z,11.67
2019-01-30T14:42:35.076Z,13.17
2019-01-30T14:45:07.263Z,11.57
2019-01-30T14:47:35.134Z,12.47
2019-01-30T14:50:04.138Z,11.50
2019-01-30T14:52:31.988Z,11.23
2019-01-30T14:55:00.247Z,12.60
2019-01-30T14:57:28.523Z,11.43
2019-01-30T14:59:56.504Z,12.00
2019-01-30T15:02:24.489Z,12.13
2019-01-30T15:04:52.673Z,11.33
2019-01-30T15:07:28.824Z,12.83
2019-01-30T15:09:50.406Z,13.00
2019-01-30T15:12:18.520Z,13.30
2019-01-30T15:14:46.589Z,13.90
2019-01-30T15:17:14.824Z,14.53
2019-01-30T15:19:42.852Z,14.83
2019-01-30T15:22:11.108Z,16.10
2019-01-30T15:24:39.274Z,16.07
2019-01-30T15:27:07.672Z,16.37
2019-01-30T15:29:35.587Z,15.87
2019-01-30T15:32:03.940Z,15.80
2019-01-30T15:34:31.888Z,16.30
2019-01-30T15:36:59.776Z,16.53
2019-01-30T15:39:27.860Z,16.20
2019-01-30T15:41:56.098Z,16.30
2019-01-30T15:44:25.182Z,17.93
2019-01-30T15:46:53.185Z,17.93
2019-01-30T15:49:21.150Z,19.03
2019-01-30T15:51:48.927Z,18.70
2019-01-30T15:54:18.785Z,18.00
2019-01-30T15:56:46.986Z,19.70
2019-01-30T15:59:14.996Z,19.73
2019-01-30T16:01:44.892Z,18.93
2019-01-30T16:04:13.887Z,19.97
2019-01-30T16:06:41.956Z,19.13
2019-01-30T16:09:09.939Z,20.23
2019-01-30T16:11:37.805Z,20.80
2019-01-30T16:14:05.905Z,21.27
2019-01-30T16:16:33.899Z,21.13
2019-01-30T16:19:01.795Z,21.23
2019-01-30T16:21:31.131Z,21.50
2019-01-30T16:24:02.002Z,21.53
2019-01-30T16:26:29.919Z,20.73
2019-01-30T16:28:57.755Z,21.83
2019-01-30T16:31:25.839Z,21.10
2019-01-30T16:33:53.904Z,19.67
2019-01-30T16:36:21.867Z,20.73
2019-01-30T16:38:49.943Z,20.43
2019-01-30T16:41:18.018Z,21.27
2019-01-30T16:43:46.058Z,20.70
2019-01-30T16:46:15.560Z,21.40
2019-01-30T16:48:43.797Z,21.17
2019-01-30T16:51:11.942Z,20.53
2019-01-30T16:53:40.049Z,20.27
2019-01-30T16:56:08.181Z,21.97
2019-01-30T16:58:36.228Z,20.23
2019-01-30T17:01:04.549Z,21.10
2019-01-30T17:03:32.595Z,20.80
2019-01-30T17:06:07.482Z,20.63
2019-01-30T17:08:33.171Z,21.03
2019-01-30T17:11:01.310Z,21.37
2019-01-30T17:13:29.302Z,21.50
2019-01-30T17:15:57.380Z,20.50
2019-01-30T17:18:25.260Z,20.70
2019-01-30T17:20:53.101Z,22.17
2019-01-30T17:23:21.124Z,20.87
2019-01-30T17:25:49.264Z,21.40
2019-01-30T17:28:17.067Z,28.43
2019-01-30T17:30:54.326Z,30.97
2019-01-30T17:33:22.210Z,23.83
2019-01-30T17:35:50.155Z,21.27
2019-01-30T17:38:18.049Z,21.97
2019-01-30T17:40:46.354Z,21.73
2019-01-30T17:43:14.473Z,19.93
2019-01-30T17:45:42.461Z,19.80
2019-01-30T17:48:11.762Z,20.73
2019-01-30T17:50:40.382Z,20.70
2019-01-30T17:53:08.220Z,21.30
2019-01-30T17:55:37.709Z,22.23
2019-01-30T17:58:06.745Z,21.33
2019-01-30T18:00:52.481Z,21.83
2019-01-30T18:03:20.610Z,22.03
2019-01-30T18:05:48.618Z,21.60
2019-01-30T18:08:22.362Z,21.10
2019-01-30T18:10:50.495Z,19.70
2019-01-30T18:13:18.146Z,21.53
2019-01-30T18:15:45.882Z,22.60
2019-01-30T18:18:13.486Z,20.47
2019-01-30T18:20:41.321Z,21.27
2019-01-30T18:23:09.050Z,21.80
2019-01-30T18:25:36.785Z,22.20
2019-01-30T18:28:04.533Z,22.43
2019-01-30T18:30:32.268Z,21.47
2019-01-30T18:32:59.901Z,22.47
2019-01-30T18:35:27.881Z,21.97
2019-01-30T18:37:55.430Z,21.03
2019-01-30T18:40:23.079Z,21.20
2019-01-30T18:42:50.686Z,22.10
2019-01-30T18:45:26.671Z,22.47
2019-01-30T18:47:54.429Z,22.37
2019-01-30T18:50:24.067Z,22.37
2019-01-30T18:52:51.675Z,22.33
2019-01-30T18:55:19.517Z,21.47
2019-01-30T18:57:47.768Z,22.50
2019-01-30T19:00:27.088Z,22.03
2019-01-30T19:02:56.358Z,23.37
2019-01-30T19:05:24.225Z,23.87
2019-01-30T19:07:51.979Z,23.10
2019-01-30T19:10:19.705Z,26.40
2019-01-30T19:12:47.371Z,25.00
2019-01-30T19:15:17.316Z,26.80
2019-01-30T19:17:44.885Z,25.97
2019-01-30T19:20:15.768Z,24.60
2019-01-30T19:22:43.365Z,25.27
2019-01-30T19:25:11.527Z,24.60
2019-01-30T19:27:39.123Z,23.13
2019-01-30T19:30:10.990Z,23.23
2019-01-30T19:32:38.660Z,24.60
2019-01-30T19:35:06.595Z,23.37
2019-01-30T19:37:34.264Z,26.33
2019-01-30T19:40:01.922Z,25.63
2019-01-30T19:42:29.577Z,26.00
2019-01-30T19:44:57.302Z,27.57
2019-01-30T19:47:24.891Z,29.40
2019-01-30T19:49:52.582Z,31.73
2019-01-30T19:52:20.241Z,31.70
2019-01-30T19:54:48.115Z,28.90
2019-01-30T19:57:15.650Z,27.90
2019-01-30T19:59:43.440Z,27.77
2019-01-30T20:02:11.090Z,28.70
2019-01-30T20:04:41.620Z,29.77
2019-01-30T20:07:14.861Z,27.97
2019-01-30T20:09:38.890Z,27.57
2019-01-30T20:12:06.480Z,28.33
2019-01-30T20:14:34.168Z,26.87
2019-01-30T20:17:01.789Z,29.80
2019-01-30T20:19:29.467Z,27.07
2019-01-30T20:21:57.102Z,27.47
2019-01-30T20:24:26.568Z,28.87
2019-01-30T20:26:54.167Z,29.50
2019-01-30T20:29:22.842Z,29.90
2019-01-30T20:31:50.583Z,30.10
2019-01-30T20:34:18.321Z,29.13
2019-01-30T20:36:46.047Z,28.83
2019-01-30T20:39:16.454Z,32.67
2019-01-30T20:41:44.227Z,31.97
2019-01-30T20:44:11.961Z,30.03
2019-01-30T20:46:39.744Z,31.07
2019-01-30T20:49:07.535Z,31.23
2019-01-30T20:51:35.262Z,31.90
2019-01-30T20:54:03.001Z,31.63
2019-01-30T20:56:30.695Z,29.30
2019-01-30T20:58:58.354Z,32.47
2019-01-30T21:01:26.490Z,31.90
2019-01-30T21:03:54.408Z,32.37
2019-01-30T21:06:22.483Z,33.33
2019-01-30T21:08:50.511Z,32.03
2019-01-30T21:11:18.144Z,34.30
2019-01-30T21:13:45.727Z,31.70
2019-01-30T21:16:13.402Z,31.37
2019-01-30T21:18:41.030Z,31.83
2019-01-30T21:21:08.700Z,31.70
2019-01-30T21:23:36.351Z,31.60
2019-01-30T21:26:04.114Z,31.67
2019-01-30T21:28:32.102Z,31.10
2019-01-30T21:31:00.161Z,33.40
2019-01-30T21:33:28.204Z,31.40
2019-01-30T21:35:56.519Z,33.27
2019-01-30T21:38:24.584Z,31.60
2019-01-30T21:40:52.524Z,32.10
2019-01-30T21:43:20.557Z,31.20
2019-01-30T21:45:48.776Z,31.17
2019-01-30T21:48:16.844Z,31.53
2019-01-30T21:50:44.828Z,33.63
2019-01-30T21:53:12.791Z,32.37
2019-01-30T21:55:40.754Z,33.80
2019-01-30T21:58:09.110Z,31.10
2019-01-30T22:00:37.002Z,31.37
2019-01-30T22:03:05.067Z,32.53
2019-01-30T22:05:32.814Z,32.60
2019-01-30T22:08:01.377Z,32.30
2019-01-30T22:10:29.554Z,32.57
2019-01-30T22:12:57.153Z,33.53
2019-01-30T22:15:26.503Z,34.77
2019-01-30T22:17:54.118Z,34.47
2019-01-30T22:20:23.417Z,34.77
2019-01-30T22:22:51.030Z,34.40
2019-01-30T22:25:20.708Z,34.60
2019-01-30T22:27:49.288Z,34.37
2019-01-30T22:30:22.154Z,35.67
2019-01-30T22:32:50.297Z,34.83
2019-01-30T22:35:18.074Z,35.47
2019-01-30T22:37:45.764Z,34.90
2019-01-30T22:40:14.019Z,35.60
2019-01-30T22:42:41.752Z,34.10
2019-01-30T22:45:11.779Z,34.47
2019-01-30T22:47:39.476Z,36.50
2019-01-30T22:50:08.141Z,36.97
2019-01-30T22:52:35.824Z,36.83
2019-01-30T22:55:04.733Z,38.17
2019-01-30T22:57:32.463Z,36.57
2019-01-30T23:00:00.098Z,33.90
2019-01-30T23:02:28.986Z,35.80
2019-01-30T23:05:24.841Z,36.43
2019-01-30T23:08:09.202Z,37.37
2019-01-30T23:11:19.944Z,36.27
2019-01-30T23:14:35.455Z,37.10
2019-01-30T23:17:49.496Z,35.73
2019-01-30T23:20:30.297Z,36.20
2019-01-30T23:23:23.935Z,35.83
2019-01-30T23:26:13.408Z,36.13
2019-01-30T23:29:14.345Z,34.60
2019-01-30T23:32:00.811Z,35.37
2019-01-30T23:35:01.760Z,36.33
2019-01-30T23:38:06.863Z,34.30
2019-01-30T23:40:51.938Z,37.67
2019-01-30T23:43:48.482Z,36.30
2019-01-30T23:46:38.423Z,37.40
2019-01-30T23:49:44.460Z,36.93
2019-01-30T23:52:39.787Z,37.50
2019-01-30T23:55:48.346Z,36.23
2019-01-30T23:58:53.563Z,37.03
